sensor_id;sensor_type;location;lat;lon;timestamp;temperature;humidity
44170;DHT22;29836;52.286;9.576;2023-02-28T00:02:17;-2.20;99.90
44170;DHT22;29836;52.286;9.576;2023-02-28T00:04:43;-2.30;99.90
44170;DHT22;29836;52.286;9.576;2023-02-28T00:07:09;-2.30;99.90
44170;DHT22;29836;52.286;9.576;2023-02-28T00:09:34;-2.20;99.90
44170;DHT22;29836;52.286;9.576;2023-02-28T00:12:00;-2.10;99.90
44170;DHT22;29836;52.286;9.576;2023-02-28T00:14:30;-2.00;99.90
44170;DHT22;29836;52.286;9.576;2023-02-28T00:16:55;-1.90;99.90
44170;DHT22;29836;52.286;9.576;2023-02-28T00:19:21;-1.90;99.90
44170;DHT22;29836;52.286;9.576;2023-02-28T00:21:46;-1.80;99.90
44170;DHT22;29836;52.286;9.576;2023-02-28T00:24:12;-1.80;99.90
44170;DHT22;29836;52.286;9.576;2023-02-28T00:26:37;-1.80;99.90
44170;DHT22;29836;52.286;9.576;2023-02-28T00:29:03;-1.70;99.90
44170;DHT22;29836;52.286;9.576;2023-02-28T00:31:28;-1.70;99.90
44170;DHT22;29836;52.286;9.576;2023-02-28T00:33:54;-1.60;99.90
44170;DHT22;29836;52.286;9.576;2023-02-28T00:36:19;-1.60;99.90
44170;DHT22;29836;52.286;9.576;2023-02-28T00:38:45;-1.60;99.90
44170;DHT22;29836;52.286;9.576;2023-02-28T00:41:10;-1.60;99.90
44170;DHT22;29836;52.286;9.576;2023-02-28T00:43:39;-1.60;99.90
44170;DHT22;29836;52.286;9.576;2023-02-28T00:46:05;-1.60;99.90
44170;DHT22;29836;52.286;9.576;2023-02-28T00:48:31;-1.70;99.90
44170;DHT22;29836;52.286;9.576;2023-02-28T00:50:57;-1.80;99.90
44170;DHT22;29836;52.286;9.576;2023-02-28T00:53:22;-1.80;99.90
44170;DHT22;29836;52.286;9.576;2023-02-28T00:55:49;-1.80;99.90
44170;DHT22;29836;52.286;9.576;2023-02-28T00:58:15;-1.80;99.90
44170;DHT22;29836;52.286;9.576;2023-02-28T01:00:40;-1.90;99.90
44170;DHT22;29836;52.286;9.576;2023-02-28T01:03:06;-1.90;99.90
44170;DHT22;29836;52.286;9.576;2023-02-28T01:05:31;-2.00;99.90
44170;DHT22;29836;52.286;9.576;2023-02-28T01:07:57;-2.10;99.90
44170;DHT22;29836;52.286;9.576;2023-02-28T01:10:22;-2.30;99.90
44170;DHT22;29836;52.286;9.576;2023-02-28T01:12:48;-2.30;99.90
44170;DHT22;29836;52.286;9.576;2023-02-28T01:15:13;-2.40;99.90
44170;DHT22;29836;52.286;9.576;2023-02-28T01:17:39;-2.40;99.90
44170;DHT22;29836;52.286;9.576;2023-02-28T01:20:05;-2.40;99.90
44170;DHT22;29836;52.286;9.576;2023-02-28T01:22:31;-2.40;99.90
44170;DHT22;29836;52.286;9.576;2023-02-28T01:24:56;-2.40;99.90
44170;DHT22;29836;52.286;9.576;2023-02-28T01:27:22;-2.40;99.90
44170;DHT22;29836;52.286;9.576;2023-02-28T01:29:47;-2.40;99.90
44170;DHT22;29836;52.286;9.576;2023-02-28T01:32:13;-2.40;99.90
44170;DHT22;29836;52.286;9.576;2023-02-28T01:34:38;-2.50;99.90
44170;DHT22;29836;52.286;9.576;2023-02-28T01:37:04;-2.60;99.90
44170;DHT22;29836;52.286;9.576;2023-02-28T01:39:29;-2.70;99.90
44170;DHT22;29836;52.286;9.576;2023-02-28T01:41:55;-2.80;99.90
44170;DHT22;29836;52.286;9.576;2023-02-28T01:44:57;-3.00;99.90
44170;DHT22;29836;52.286;9.576;2023-02-28T01:47:27;-3.00;99.90
44170;DHT22;29836;52.286;9.576;2023-02-28T01:49:54;-3.10;99.90
44170;DHT22;29836;52.286;9.576;2023-02-28T01:52:20;-3.20;99.90
44170;DHT22;29836;52.286;9.576;2023-02-28T01:54:50;-3.30;99.90
44170;DHT22;29836;52.286;9.576;2023-02-28T01:57:19;-3.40;99.90
44170;DHT22;29836;52.286;9.576;2023-02-28T01:59:52;-3.50;99.90
44170;DHT22;29836;52.286;9.576;2023-02-28T02:02:20;-3.60;99.90
44170;DHT22;29836;52.286;9.576;2023-02-28T02:04:56;-3.70;99.90
44170;DHT22;29836;52.286;9.576;2023-02-28T02:07:25;-3.80;99.90
44170;DHT22;29836;52.286;9.576;2023-02-28T02:10:04;-3.90;99.90
44170;DHT22;29836;52.286;9.576;2023-02-28T02:12:56;-3.90;99.90
44170;DHT22;29836;52.286;9.576;2023-02-28T02:15:41;-4.00;99.90
44170;DHT22;29836;52.286;9.576;2023-02-28T02:23:57;-4.10;99.90
44170;DHT22;29836;52.286;9.576;2023-02-28T02:32:25;-4.10;99.90
44170;DHT22;29836;52.286;9.576;2023-02-28T02:35:07;-4.10;99.90
44170;DHT22;29836;52.286;9.576;2023-02-28T02:40:28;-4.20;99.90
44170;DHT22;29836;52.286;9.576;2023-02-28T02:43:01;-4.30;99.90
44170;DHT22;29836;52.286;9.576;2023-02-28T02:45:41;-4.40;99.90
44170;DHT22;29836;52.286;9.576;2023-02-28T02:48:12;-4.40;99.90
44170;DHT22;29836;52.286;9.576;2023-02-28T02:50:43;-4.40;99.90
44170;DHT22;29836;52.286;9.576;2023-02-28T02:53:12;-4.40;99.90
44170;DHT22;29836;52.286;9.576;2023-02-28T02:55:41;-4.40;99.90
44170;DHT22;29836;52.286;9.576;2023-02-28T02:58:12;-4.40;99.90
44170;DHT22;29836;52.286;9.576;2023-02-28T03:00:46;-4.30;99.90
44170;DHT22;29836;52.286;9.576;2023-02-28T03:03:13;-4.40;99.90
44170;DHT22;29836;52.286;9.576;2023-02-28T03:05:47;-4.50;99.90
44170;DHT22;29836;52.286;9.576;2023-02-28T03:08:13;-4.50;99.90
44170;DHT22;29836;52.286;9.576;2023-02-28T03:10:45;-4.60;99.90
44170;DHT22;29836;52.286;9.576;2023-02-28T03:21:46;-4.80;99.90
44170;DHT22;29836;52.286;9.576;2023-02-28T03:27:38;-4.70;99.90
44170;DHT22;29836;52.286;9.576;2023-02-28T03:35:29;-4.70;99.90
44170;DHT22;29836;52.286;9.576;2023-02-28T03:38:03;-4.70;99.90
44170;DHT22;29836;52.286;9.576;2023-02-28T03:40:33;-4.70;99.90
44170;DHT22;29836;52.286;9.576;2023-02-28T03:43:03;-4.70;99.90
44170;DHT22;29836;52.286;9.576;2023-02-28T03:45:35;-4.80;99.90
44170;DHT22;29836;52.286;9.576;2023-02-28T03:50:38;-4.90;99.90
44170;DHT22;29836;52.286;9.576;2023-02-28T03:53:19;-4.90;99.90
44170;DHT22;29836;52.286;9.576;2023-02-28T03:55:55;-4.90;99.90
44170;DHT22;29836;52.286;9.576;2023-02-28T03:58:37;-4.90;99.90
44170;DHT22;29836;52.286;9.576;2023-02-28T04:01:13;-5.00;99.90
44170;DHT22;29836;52.286;9.576;2023-02-28T04:03:40;-5.00;99.90
44170;DHT22;29836;52.286;9.576;2023-02-28T04:06:08;-5.00;99.90
44170;DHT22;29836;52.286;9.576;2023-02-28T04:08:38;-5.10;99.90
44170;DHT22;29836;52.286;9.576;2023-02-28T04:11:07;-5.10;99.90
44170;DHT22;29836;52.286;9.576;2023-02-28T04:13:40;-5.20;99.90
44170;DHT22;29836;52.286;9.576;2023-02-28T04:16:09;-5.30;99.90
44170;DHT22;29836;52.286;9.576;2023-02-28T04:18:38;-5.40;99.90
44170;DHT22;29836;52.286;9.576;2023-02-28T04:21:04;-5.40;99.90
44170;DHT22;29836;52.286;9.576;2023-02-28T04:23:30;-5.50;99.90
44170;DHT22;29836;52.286;9.576;2023-02-28T04:25:56;-5.50;99.90
44170;DHT22;29836;52.286;9.576;2023-02-28T04:28:22;-5.50;99.90
44170;DHT22;29836;52.286;9.576;2023-02-28T04:30:47;-5.60;99.90
44170;DHT22;29836;52.286;9.576;2023-02-28T04:33:13;-5.70;99.90
44170;DHT22;29836;52.286;9.576;2023-02-28T04:35:38;-5.70;99.90
44170;DHT22;29836;52.286;9.576;2023-02-28T04:38:04;-5.70;99.90
44170;DHT22;29836;52.286;9.576;2023-02-28T04:40:29;-5.60;99.90
44170;DHT22;29836;52.286;9.576;2023-02-28T04:42:55;-5.60;99.90
44170;DHT22;29836;52.286;9.576;2023-02-28T04:45:20;-5.70;99.90
44170;DHT22;29836;52.286;9.576;2023-02-28T04:47:46;-5.70;99.90
44170;DHT22;29836;52.286;9.576;2023-02-28T04:50:11;-5.60;99.90
44170;DHT22;29836;52.286;9.576;2023-02-28T04:52:37;-5.50;99.90
44170;DHT22;29836;52.286;9.576;2023-02-28T04:55:03;-5.50;99.90
44170;DHT22;29836;52.286;9.576;2023-02-28T04:57:28;-5.50;99.90
44170;DHT22;29836;52.286;9.576;2023-02-28T04:59:55;-5.40;99.90
44170;DHT22;29836;52.286;9.576;2023-02-28T05:02:20;-5.40;99.90
44170;DHT22;29836;52.286;9.576;2023-02-28T05:04:46;-5.40;99.90
44170;DHT22;29836;52.286;9.576;2023-02-28T05:07:12;-5.40;99.90
44170;DHT22;29836;52.286;9.576;2023-02-28T05:09:37;-5.40;99.90
44170;DHT22;29836;52.286;9.576;2023-02-28T05:12:03;-5.40;99.90
44170;DHT22;29836;52.286;9.576;2023-02-28T05:14:28;-5.40;99.90
44170;DHT22;29836;52.286;9.576;2023-02-28T05:16:54;-5.40;99.90
44170;DHT22;29836;52.286;9.576;2023-02-28T05:19:20;-5.50;99.90
44170;DHT22;29836;52.286;9.576;2023-02-28T05:21:51;-5.50;99.90
44170;DHT22;29836;52.286;9.576;2023-02-28T05:24:18;-5.50;99.90
44170;DHT22;29836;52.286;9.576;2023-02-28T05:26:50;-5.40;99.90
44170;DHT22;29836;52.286;9.576;2023-02-28T05:29:17;-5.30;99.90
44170;DHT22;29836;52.286;9.576;2023-02-28T05:31:42;-5.20;99.90
44170;DHT22;29836;52.286;9.576;2023-02-28T05:34:08;-5.10;99.90
44170;DHT22;29836;52.286;9.576;2023-02-28T05:36:36;-5.10;99.90
44170;DHT22;29836;52.286;9.576;2023-02-28T05:39:02;-5.10;99.90
44170;DHT22;29836;52.286;9.576;2023-02-28T05:41:28;-5.20;99.90
44170;DHT22;29836;52.286;9.576;2023-02-28T05:43:54;-5.20;99.90
44170;DHT22;29836;52.286;9.576;2023-02-28T05:46:19;-5.20;99.90
44170;DHT22;29836;52.286;9.576;2023-02-28T05:48:47;-5.10;99.90
44170;DHT22;29836;52.286;9.576;2023-02-28T05:51:13;-5.00;99.90
44170;DHT22;29836;52.286;9.576;2023-02-28T05:53:38;-5.00;99.90
44170;DHT22;29836;52.286;9.576;2023-02-28T05:56:04;-5.10;99.90
44170;DHT22;29836;52.286;9.576;2023-02-28T05:58:29;-5.10;99.90
44170;DHT22;29836;52.286;9.576;2023-02-28T06:01:00;-5.00;99.90
44170;DHT22;29836;52.286;9.576;2023-02-28T06:03:26;-5.00;99.90
44170;DHT22;29836;52.286;9.576;2023-02-28T06:05:52;-5.00;99.90
44170;DHT22;29836;52.286;9.576;2023-02-28T06:08:17;-5.00;99.90
44170;DHT22;29836;52.286;9.576;2023-02-28T06:10:43;-4.70;99.90
44170;DHT22;29836;52.286;9.576;2023-02-28T06:13:10;-4.50;99.90
44170;DHT22;29836;52.286;9.576;2023-02-28T06:15:37;-4.20;99.90
44170;DHT22;29836;52.286;9.576;2023-02-28T06:18:02;-4.10;99.90
44170;DHT22;29836;52.286;9.576;2023-02-28T06:20:28;-4.10;99.90
44170;DHT22;29836;52.286;9.576;2023-02-28T06:22:57;-4.10;99.90
44170;DHT22;29836;52.286;9.576;2023-02-28T06:25:27;-4.00;99.90
44170;DHT22;29836;52.286;9.576;2023-02-28T06:27:54;-3.90;99.90
44170;DHT22;29836;52.286;9.576;2023-02-28T06:30:20;-3.90;99.90
44170;DHT22;29836;52.286;9.576;2023-02-28T06:32:49;-3.80;99.90
44170;DHT22;29836;52.286;9.576;2023-02-28T06:35:15;-3.80;99.90
44170;DHT22;29836;52.286;9.576;2023-02-28T06:37:41;-3.80;99.90
44170;DHT22;29836;52.286;9.576;2023-02-28T06:40:08;-3.90;99.90
44170;DHT22;29836;52.286;9.576;2023-02-28T06:42:34;-4.00;99.90
44170;DHT22;29836;52.286;9.576;2023-02-28T06:44:59;-3.90;99.90
44170;DHT22;29836;52.286;9.576;2023-02-28T06:47:25;-3.80;99.90
44170;DHT22;29836;52.286;9.576;2023-02-28T06:49:50;-3.60;99.90
44170;DHT22;29836;52.286;9.576;2023-02-28T06:52:16;-3.40;99.90
44170;DHT22;29836;52.286;9.576;2023-02-28T06:54:42;-3.00;99.90
44170;DHT22;29836;52.286;9.576;2023-02-28T06:57:07;-2.40;99.90
44170;DHT22;29836;52.286;9.576;2023-02-28T06:59:33;-1.70;99.90
44170;DHT22;29836;52.286;9.576;2023-02-28T07:02:00;-0.90;99.90
44170;DHT22;29836;52.286;9.576;2023-02-28T07:04:27;0.20;99.90
44170;DHT22;29836;52.286;9.576;2023-02-28T07:06:53;1.40;99.90
44170;DHT22;29836;52.286;9.576;2023-02-28T07:09:21;2.30;99.90
44170;DHT22;29836;52.286;9.576;2023-02-28T07:11:46;3.10;99.90
44170;DHT22;29836;52.286;9.576;2023-02-28T07:14:12;3.50;99.90
44170;DHT22;29836;52.286;9.576;2023-02-28T07:16:37;3.90;98.20
44170;DHT22;29836;52.286;9.576;2023-02-28T07:19:03;4.20;96.90
44170;DHT22;29836;52.286;9.576;2023-02-28T07:21:28;4.50;93.90
44170;DHT22;29836;52.286;9.576;2023-02-28T07:23:55;4.70;93.80
44170;DHT22;29836;52.286;9.576;2023-02-28T07:26:21;4.60;92.90
44170;DHT22;29836;52.286;9.576;2023-02-28T07:28:48;5.10;93.40
44170;DHT22;29836;52.286;9.576;2023-02-28T07:31:15;6.00;91.30
44170;DHT22;29836;52.286;9.576;2023-02-28T07:33:41;6.70;86.50
44170;DHT22;29836;52.286;9.576;2023-02-28T07:36:15;7.30;83.30
44170;DHT22;29836;52.286;9.576;2023-02-28T07:38:45;5.80;88.60
44170;DHT22;29836;52.286;9.576;2023-02-28T07:41:13;4.90;91.50
44170;DHT22;29836;52.286;9.576;2023-02-28T07:43:39;4.90;91.10
44170;DHT22;29836;52.286;9.576;2023-02-28T07:46:07;4.40;91.50
44170;DHT22;29836;52.286;9.576;2023-02-28T07:48:33;3.60;92.80
44170;DHT22;29836;52.286;9.576;2023-02-28T07:50:59;3.20;94.10
44170;DHT22;29836;52.286;9.576;2023-02-28T07:53:26;3.60;94.50
44170;DHT22;29836;52.286;9.576;2023-02-28T07:55:57;3.60;93.90
44170;DHT22;29836;52.286;9.576;2023-02-28T07:58:25;4.30;93.50
44170;DHT22;29836;52.286;9.576;2023-02-28T08:00:51;5.30;91.30
44170;DHT22;29836;52.286;9.576;2023-02-28T08:03:18;6.40;85.40
44170;DHT22;29836;52.286;9.576;2023-02-28T08:05:45;6.30;80.60
44170;DHT22;29836;52.286;9.576;2023-02-28T08:08:10;5.90;83.60
44170;DHT22;29836;52.286;9.576;2023-02-28T08:10:36;6.00;86.30
44170;DHT22;29836;52.286;9.576;2023-02-28T08:13:02;6.30;85.10
44170;DHT22;29836;52.286;9.576;2023-02-28T08:15:28;5.90;87.20
44170;DHT22;29836;52.286;9.576;2023-02-28T08:17:53;5.80;90.70
44170;DHT22;29836;52.286;9.576;2023-02-28T08:20:21;5.90;91.00
44170;DHT22;29836;52.286;9.576;2023-02-28T08:22:47;6.50;86.20
44170;DHT22;29836;52.286;9.576;2023-02-28T08:25:13;7.10;87.20
44170;DHT22;29836;52.286;9.576;2023-02-28T08:27:39;8.30;82.90
44170;DHT22;29836;52.286;9.576;2023-02-28T08:30:05;8.60;74.70
44170;DHT22;29836;52.286;9.576;2023-02-28T08:32:32;8.70;75.80
44170;DHT22;29836;52.286;9.576;2023-02-28T08:34:58;9.00;73.00
44170;DHT22;29836;52.286;9.576;2023-02-28T08:37:24;8.90;71.80
44170;DHT22;29836;52.286;9.576;2023-02-28T08:39:50;9.20;71.50
44170;DHT22;29836;52.286;9.576;2023-02-28T08:42:16;9.20;70.50
44170;DHT22;29836;52.286;9.576;2023-02-28T08:44:41;9.60;72.40
44170;DHT22;29836;52.286;9.576;2023-02-28T08:47:07;10.00;69.20
44170;DHT22;29836;52.286;9.576;2023-02-28T08:49:33;10.40;70.40
44170;DHT22;29836;52.286;9.576;2023-02-28T08:51:58;11.00;67.30
44170;DHT22;29836;52.286;9.576;2023-02-28T08:54:24;11.50;64.50
44170;DHT22;29836;52.286;9.576;2023-02-28T08:56:50;11.20;63.80
44170;DHT22;29836;52.286;9.576;2023-02-28T08:59:16;11.10;64.80
44170;DHT22;29836;52.286;9.576;2023-02-28T09:01:41;10.90;66.20
44170;DHT22;29836;52.286;9.576;2023-02-28T09:04:09;11.10;66.10
44170;DHT22;29836;52.286;9.576;2023-02-28T09:06:36;11.00;64.80
44170;DHT22;29836;52.286;9.576;2023-02-28T09:09:02;10.30;65.60
44170;DHT22;29836;52.286;9.576;2023-02-28T09:11:29;10.30;68.40
44170;DHT22;29836;52.286;9.576;2023-02-28T09:13:55;10.50;68.30
44170;DHT22;29836;52.286;9.576;2023-02-28T09:16:21;10.90;67.40
44170;DHT22;29836;52.286;9.576;2023-02-28T09:18:47;11.20;65.40
44170;DHT22;29836;52.286;9.576;2023-02-28T09:21:18;11.40;65.10
44170;DHT22;29836;52.286;9.576;2023-02-28T09:23:45;11.20;64.20
44170;DHT22;29836;52.286;9.576;2023-02-28T09:26:23;11.30;66.20
44170;DHT22;29836;52.286;9.576;2023-02-28T09:28:49;11.20;64.70
44170;DHT22;29836;52.286;9.576;2023-02-28T09:31:23;10.90;63.20
44170;DHT22;29836;52.286;9.576;2023-02-28T09:33:51;10.80;66.10
44170;DHT22;29836;52.286;9.576;2023-02-28T09:36:17;11.20;67.40
44170;DHT22;29836;52.286;9.576;2023-02-28T09:38:43;12.00;63.30
44170;DHT22;29836;52.286;9.576;2023-02-28T09:41:14;12.10;64.10
44170;DHT22;29836;52.286;9.576;2023-02-28T09:43:43;12.90;60.80
44170;DHT22;29836;52.286;9.576;2023-02-28T09:49:02;12.20;62.60
44170;DHT22;29836;52.286;9.576;2023-02-28T09:53:59;12.20;61.90
44170;DHT22;29836;52.286;9.576;2023-02-28T09:56:31;12.00;63.30
44170;DHT22;29836;52.286;9.576;2023-02-28T09:59:15;12.20;63.00
44170;DHT22;29836;52.286;9.576;2023-02-28T10:02:04;12.20;63.70
44170;DHT22;29836;52.286;9.576;2023-02-28T10:04:52;12.50;60.50
44170;DHT22;29836;52.286;9.576;2023-02-28T10:10:14;11.50;62.40
44170;DHT22;29836;52.286;9.576;2023-02-28T10:12:44;11.80;65.90
44170;DHT22;29836;52.286;9.576;2023-02-28T10:15:14;11.40;63.20
44170;DHT22;29836;52.286;9.576;2023-02-28T10:17:43;11.40;63.50
44170;DHT22;29836;52.286;9.576;2023-02-28T10:20:23;11.30;63.20
44170;DHT22;29836;52.286;9.576;2023-02-28T10:23:09;11.50;65.80
44170;DHT22;29836;52.286;9.576;2023-02-28T10:25:38;11.00;66.20
44170;DHT22;29836;52.286;9.576;2023-02-28T10:28:12;10.80;65.10
44170;DHT22;29836;52.286;9.576;2023-02-28T10:30:53;10.60;65.60
44170;DHT22;29836;52.286;9.576;2023-02-28T10:33:27;11.50;65.60
44170;DHT22;29836;52.286;9.576;2023-02-28T10:35:53;11.10;64.60
44170;DHT22;29836;52.286;9.576;2023-02-28T10:38:24;11.40;66.50
44170;DHT22;29836;52.286;9.576;2023-02-28T10:40:51;11.70;63.70
44170;DHT22;29836;52.286;9.576;2023-02-28T10:45:58;11.40;62.10
44170;DHT22;29836;52.286;9.576;2023-02-28T10:48:38;12.00;63.70
44170;DHT22;29836;52.286;9.576;2023-02-28T10:51:07;12.80;63.50
44170;DHT22;29836;52.286;9.576;2023-02-28T10:58:30;11.50;66.50
44170;DHT22;29836;52.286;9.576;2023-02-28T11:00:56;11.40;64.60
44170;DHT22;29836;52.286;9.576;2023-02-28T11:03:34;11.50;64.10
44170;DHT22;29836;52.286;9.576;2023-02-28T11:06:10;11.90;61.50
44170;DHT22;29836;52.286;9.576;2023-02-28T11:08:50;12.20;62.90
44170;DHT22;29836;52.286;9.576;2023-02-28T11:11:17;12.00;63.50
44170;DHT22;29836;52.286;9.576;2023-02-28T11:13:44;11.10;65.00
44170;DHT22;29836;52.286;9.576;2023-02-28T11:16:12;9.70;66.30
44170;DHT22;29836;52.286;9.576;2023-02-28T11:21:16;7.40;79.10
44170;DHT22;29836;52.286;9.576;2023-02-28T11:23:44;7.10;79.60
44170;DHT22;29836;52.286;9.576;2023-02-28T11:26:09;7.00;76.40
44170;DHT22;29836;52.286;9.576;2023-02-28T11:28:41;6.30;74.70
44170;DHT22;29836;52.286;9.576;2023-02-28T11:38:45;3.90;90.10
44170;DHT22;29836;52.286;9.576;2023-02-28T11:44:00;3.70;91.00
44170;DHT22;29836;52.286;9.576;2023-02-28T11:51:53;3.50;94.40
44170;DHT22;29836;52.286;9.576;2023-02-28T11:57:32;3.90;90.00
44170;DHT22;29836;52.286;9.576;2023-02-28T12:05:49;3.30;97.90
44170;DHT22;29836;52.286;9.576;2023-02-28T12:16:21;4.60;93.50
44170;DHT22;29836;52.286;9.576;2023-02-28T12:19:16;4.50;97.60
44170;DHT22;29836;52.286;9.576;2023-02-28T12:24:31;4.40;97.30
44170;DHT22;29836;52.286;9.576;2023-02-28T12:27:07;4.00;97.40
44170;DHT22;29836;52.286;9.576;2023-02-28T12:35:02;3.40;95.90
44170;DHT22;29836;52.286;9.576;2023-02-28T12:37:33;3.30;97.70
44170;DHT22;29836;52.286;9.576;2023-02-28T12:40:11;3.10;97.80
44170;DHT22;29836;52.286;9.576;2023-02-28T12:42:40;3.10;97.00
44170;DHT22;29836;52.286;9.576;2023-02-28T12:45:10;3.10;96.20
44170;DHT22;29836;52.286;9.576;2023-02-28T12:47:38;3.40;96.80
44170;DHT22;29836;52.286;9.576;2023-02-28T12:50:10;3.60;96.90
44170;DHT22;29836;52.286;9.576;2023-02-28T12:53:00;3.40;96.60
44170;DHT22;29836;52.286;9.576;2023-02-28T12:55:49;3.30;95.90
44170;DHT22;29836;52.286;9.576;2023-02-28T12:58:27;3.20;95.10
44170;DHT22;29836;52.286;9.576;2023-02-28T13:09:59;4.10;97.00
44170;DHT22;29836;52.286;9.576;2023-02-28T13:12:25;4.10;94.20
44170;DHT22;29836;52.286;9.576;2023-02-28T13:15:08;4.00;93.90
44170;DHT22;29836;52.286;9.576;2023-02-28T13:17:39;3.90;96.70
44170;DHT22;29836;52.286;9.576;2023-02-28T13:20:15;4.00;95.10
44170;DHT22;29836;52.286;9.576;2023-02-28T13:22:49;4.10;96.80
44170;DHT22;29836;52.286;9.576;2023-02-28T13:27:52;4.10;95.50
44170;DHT22;29836;52.286;9.576;2023-02-28T13:33:31;4.00;94.80
44170;DHT22;29836;52.286;9.576;2023-02-28T13:38:46;4.00;96.60
44170;DHT22;29836;52.286;9.576;2023-02-28T13:44:08;3.90;94.50
44170;DHT22;29836;52.286;9.576;2023-02-28T13:47:21;3.90;96.00
44170;DHT22;29836;52.286;9.576;2023-02-28T13:49:27;3.90;95.80
44170;DHT22;29836;52.286;9.576;2023-02-28T14:03:12;3.80;94.60
44170;DHT22;29836;52.286;9.576;2023-02-28T14:05:40;3.80;95.00
44170;DHT22;29836;52.286;9.576;2023-02-28T14:08:13;3.70;94.20
44170;DHT22;29836;52.286;9.576;2023-02-28T14:10:49;3.70;96.20
44170;DHT22;29836;52.286;9.576;2023-02-28T14:13:44;3.70;95.30
44170;DHT22;29836;52.286;9.576;2023-02-28T14:16:14;3.70;94.70
44170;DHT22;29836;52.286;9.576;2023-02-28T14:18:56;3.70;95.60
44170;DHT22;29836;52.286;9.576;2023-02-28T14:21:29;3.70;95.10
44170;DHT22;29836;52.286;9.576;2023-02-28T14:26:57;3.70;96.90
44170;DHT22;29836;52.286;9.576;2023-02-28T14:29:43;3.70;94.40
44170;DHT22;29836;52.286;9.576;2023-02-28T14:34:52;3.60;95.60
44170;DHT22;29836;52.286;9.576;2023-02-28T14:37:28;3.60;94.90
44170;DHT22;29836;52.286;9.576;2023-02-28T14:39:55;3.60;93.40
44170;DHT22;29836;52.286;9.576;2023-02-28T14:42:33;3.50;94.40
44170;DHT22;29836;52.286;9.576;2023-02-28T14:44:59;3.50;97.10
44170;DHT22;29836;52.286;9.576;2023-02-28T14:47:28;3.50;96.40
44170;DHT22;29836;52.286;9.576;2023-02-28T14:49:55;3.50;96.00
44170;DHT22;29836;52.286;9.576;2023-02-28T14:52:24;3.40;97.10
44170;DHT22;29836;52.286;9.576;2023-02-28T14:54:59;3.40;97.50
44170;DHT22;29836;52.286;9.576;2023-02-28T14:57:31;3.40;95.90
44170;DHT22;29836;52.286;9.576;2023-02-28T14:59:58;3.40;97.40
44170;DHT22;29836;52.286;9.576;2023-02-28T15:02:25;3.40;97.80
44170;DHT22;29836;52.286;9.576;2023-02-28T15:04:57;3.40;95.80
44170;DHT22;29836;52.286;9.576;2023-02-28T15:07:23;3.40;96.40
44170;DHT22;29836;52.286;9.576;2023-02-28T15:10:16;3.40;95.90
44170;DHT22;29836;52.286;9.576;2023-02-28T15:12:46;3.30;95.50
44170;DHT22;29836;52.286;9.576;2023-02-28T15:15:16;3.30;95.20
44170;DHT22;29836;52.286;9.576;2023-02-28T15:17:46;3.30;94.60
44170;DHT22;29836;52.286;9.576;2023-02-28T15:20:13;3.30;96.40
44170;DHT22;29836;52.286;9.576;2023-02-28T15:22:40;3.20;95.30
44170;DHT22;29836;52.286;9.576;2023-02-28T15:25:06;3.20;96.20
44170;DHT22;29836;52.286;9.576;2023-02-28T15:27:33;3.10;96.10
44170;DHT22;29836;52.286;9.576;2023-02-28T15:30:06;3.10;96.30
44170;DHT22;29836;52.286;9.576;2023-02-28T15:32:37;3.00;96.80
44170;DHT22;29836;52.286;9.576;2023-02-28T15:40:49;2.90;97.10
44170;DHT22;29836;52.286;9.576;2023-02-28T15:43:39;2.90;98.40
44170;DHT22;29836;52.286;9.576;2023-02-28T15:46:06;2.80;98.30
44170;DHT22;29836;52.286;9.576;2023-02-28T15:48:35;2.70;98.70
44170;DHT22;29836;52.286;9.576;2023-02-28T15:51:16;2.70;99.60
44170;DHT22;29836;52.286;9.576;2023-02-28T15:56:37;2.70;98.80
44170;DHT22;29836;52.286;9.576;2023-02-28T15:59:06;2.70;97.70
44170;DHT22;29836;52.286;9.576;2023-02-28T16:01:34;2.70;98.80
44170;DHT22;29836;52.286;9.576;2023-02-28T16:04:03;2.70;99.90
44170;DHT22;29836;52.286;9.576;2023-02-28T16:09:05;2.50;99.90
44170;DHT22;29836;52.286;9.576;2023-02-28T16:11:33;2.40;99.90
44170;DHT22;29836;52.286;9.576;2023-02-28T16:14:00;2.30;99.90
44170;DHT22;29836;52.286;9.576;2023-02-28T16:16:26;2.30;99.90
44170;DHT22;29836;52.286;9.576;2023-02-28T16:18:52;2.20;99.90
44170;DHT22;29836;52.286;9.576;2023-02-28T16:21:18;2.10;99.90
44170;DHT22;29836;52.286;9.576;2023-02-28T16:23:43;1.90;99.90
44170;DHT22;29836;52.286;9.576;2023-02-28T16:26:21;1.80;99.90
44170;DHT22;29836;52.286;9.576;2023-02-28T16:28:48;1.70;99.90
44170;DHT22;29836;52.286;9.576;2023-02-28T16:31:14;1.60;99.90
44170;DHT22;29836;52.286;9.576;2023-02-28T16:33:43;1.40;99.90
44170;DHT22;29836;52.286;9.576;2023-02-28T16:36:28;1.30;99.90
44170;DHT22;29836;52.286;9.576;2023-02-28T16:38:54;1.20;99.90
44170;DHT22;29836;52.286;9.576;2023-02-28T16:41:22;1.20;99.90
44170;DHT22;29836;52.286;9.576;2023-02-28T16:43:51;1.10;99.90
44170;DHT22;29836;52.286;9.576;2023-02-28T16:46:18;1.00;99.90
44170;DHT22;29836;52.286;9.576;2023-02-28T16:48:45;1.00;99.90
44170;DHT22;29836;52.286;9.576;2023-02-28T16:51:15;0.90;99.90
44170;DHT22;29836;52.286;9.576;2023-02-28T16:53:41;0.80;99.90
44170;DHT22;29836;52.286;9.576;2023-02-28T16:56:17;0.70;99.90
44170;DHT22;29836;52.286;9.576;2023-02-28T16:58:44;0.60;99.90
44170;DHT22;29836;52.286;9.576;2023-02-28T17:01:10;0.50;99.90
44170;DHT22;29836;52.286;9.576;2023-02-28T17:03:35;0.50;99.90
44170;DHT22;29836;52.286;9.576;2023-02-28T17:06:02;0.50;99.90
44170;DHT22;29836;52.286;9.576;2023-02-28T17:08:28;0.50;99.90
44170;DHT22;29836;52.286;9.576;2023-02-28T17:10:55;0.40;99.90
44170;DHT22;29836;52.286;9.576;2023-02-28T17:13:20;0.30;99.90
44170;DHT22;29836;52.286;9.576;2023-02-28T17:15:46;0.20;99.90
44170;DHT22;29836;52.286;9.576;2023-02-28T17:18:17;0.20;99.90
44170;DHT22;29836;52.286;9.576;2023-02-28T17:20:47;0.20;99.90
44170;DHT22;29836;52.286;9.576;2023-02-28T17:23:12;0.30;99.90
44170;DHT22;29836;52.286;9.576;2023-02-28T17:25:38;0.40;99.90
44170;DHT22;29836;52.286;9.576;2023-02-28T17:28:04;0.40;99.90
44170;DHT22;29836;52.286;9.576;2023-02-28T17:30:31;0.30;99.90
44170;DHT22;29836;52.286;9.576;2023-02-28T17:32:58;0.30;99.90
44170;DHT22;29836;52.286;9.576;2023-02-28T17:35:24;0.30;99.90
44170;DHT22;29836;52.286;9.576;2023-02-28T17:37:49;0.30;99.90
44170;DHT22;29836;52.286;9.576;2023-02-28T17:40:17;0.20;99.90
44170;DHT22;29836;52.286;9.576;2023-02-28T17:42:44;0.10;99.90
44170;DHT22;29836;52.286;9.576;2023-02-28T17:45:12;0.10;99.90
44170;DHT22;29836;52.286;9.576;2023-02-28T17:47:38;0.20;99.90
44170;DHT22;29836;52.286;9.576;2023-02-28T17:50:04;0.20;99.90
44170;DHT22;29836;52.286;9.576;2023-02-28T17:52:30;0.20;99.90
44170;DHT22;29836;52.286;9.576;2023-02-28T17:54:56;0.30;99.90
44170;DHT22;29836;52.286;9.576;2023-02-28T17:57:21;0.30;99.90
44170;DHT22;29836;52.286;9.576;2023-02-28T17:59:47;0.40;99.90
44170;DHT22;29836;52.286;9.576;2023-02-28T18:02:13;0.40;99.90
44170;DHT22;29836;52.286;9.576;2023-02-28T18:04:39;0.40;99.90
44170;DHT22;29836;52.286;9.576;2023-02-28T18:07:06;0.50;99.90
44170;DHT22;29836;52.286;9.576;2023-02-28T18:09:34;0.60;99.90
44170;DHT22;29836;52.286;9.576;2023-02-28T18:12:00;0.60;99.90